createdAt,value
2019-03-26T00:28:42.666Z,75.21
2019-03-26T00:28:43.237Z,75.59
2019-03-26T00:28:43.834Z,75.59
2019-03-26T00:28:44.435Z,75.31
2019-03-26T00:28:45.034Z,75.21
2019-03-26T00:28:45.632Z,75.21
2019-03-26T00:28:46.235Z,75.59
2019-03-26T00:29:40.289Z,75.40
2019-03-26T00:29:40.887Z,75.59
2019-03-26T00:29:41.491Z,75.21
2019-03-26T00:29:42.086Z,75.21
2019-03-26T00:29:42.689Z,75.59
2019-03-26T00:29:43.287Z,75.21
2019-03-26T00:29:43.888Z,75.21
2019-03-26T00:30:37.944Z,75.11
2019-03-26T00:30:38.545Z,75.11
2019-03-26T00:30:39.138Z,75.31
2019-03-26T00:30:39.738Z,75.21
2019-03-26T00:30:40.340Z,75.40
2019-03-26T00:30:40.938Z,75.11
2019-03-26T00:30:41.537Z,75.21
2019-03-26T00:31:35.099Z,75.40
2019-03-26T00:31:35.680Z,75.40
2019-03-26T00:31:36.279Z,75.59
2019-03-26T00:31:36.879Z,75.49
2019-03-26T00:31:37.480Z,75.43
2019-03-26T00:31:38.078Z,75.31
2019-03-26T00:31:38.682Z,75.59
2019-03-26T00:31:39.280Z,75.40
2019-03-26T00:32:33.284Z,75.11
2019-03-26T00:32:33.847Z,75.11
2019-03-26T00:32:34.443Z,75.87
2019-03-26T00:32:35.043Z,75.78
2019-03-26T00:32:35.646Z,75.40
2019-03-26T00:32:36.242Z,75.40
2019-03-26T00:32:36.846Z,75.96
2019-03-26T00:33:50.867Z,76.82
2019-03-26T00:33:51.464Z,76.86
2019-03-26T00:33:52.068Z,76.63
2019-03-26T00:33:52.664Z,76.63
2019-03-26T00:33:53.262Z,76.82
2019-03-26T00:33:53.862Z,76.34
2019-03-26T00:33:54.463Z,76.63
2019-03-26T00:34:48.520Z,77.48
2019-03-26T00:34:49.116Z,77.71
2019-03-26T00:34:49.720Z,77.67
2019-03-26T00:34:50.400Z,77.48
2019-03-26T00:34:50.915Z,77.67
2019-03-26T00:34:51.515Z,77.71
2019-03-26T00:34:52.117Z,77.58
2019-03-26T00:35:46.172Z,78.05
2019-03-26T00:35:46.771Z,77.71
2019-03-26T00:35:47.369Z,78.15
2019-03-26T00:35:47.965Z,78.19
2019-03-26T00:35:48.567Z,78.15
2019-03-26T00:35:49.167Z,78.24
2019-03-26T00:35:49.764Z,78.28
2019-03-26T00:36:43.825Z,78.56
2019-03-26T00:36:44.420Z,78.56
2019-03-26T00:36:45.019Z,78.66
2019-03-26T00:36:45.619Z,78.66
2019-03-26T00:36:46.219Z,78.75
2019-03-26T00:36:46.819Z,78.75
2019-03-26T00:36:47.418Z,78.75
2019-03-26T00:37:41.510Z,79.23
2019-03-26T00:37:42.086Z,79.61
2019-03-26T00:37:42.672Z,79.23
2019-03-26T00:37:43.272Z,79.23
2019-03-26T00:37:43.870Z,79.23
2019-03-26T00:37:44.470Z,79.23
2019-03-26T00:37:45.070Z,79.38
2019-03-26T00:38:39.150Z,79.80
2019-03-26T00:38:39.841Z,79.38
2019-03-26T00:38:40.362Z,79.90
2019-03-26T00:38:41.004Z,79.52
2019-03-26T00:38:41.596Z,79.80
2019-03-26T00:38:42.163Z,79.61
2019-03-26T00:38:42.812Z,79.38
2019-03-26T00:39:36.788Z,79.71
2019-03-26T00:39:37.377Z,79.71
2019-03-26T00:39:37.974Z,79.71
2019-03-26T00:39:38.575Z,79.61
2019-03-26T00:39:39.174Z,79.80
2019-03-26T00:39:39.775Z,79.57
2019-03-26T00:39:40.374Z,79.57
2019-03-26T00:40:34.431Z,80.37
2019-03-26T00:40:35.027Z,80.37
2019-03-26T00:40:35.630Z,80.08
2019-03-26T00:40:36.227Z,80.37
2019-03-26T00:40:39.918Z,80.27
2019-03-26T00:40:40.095Z,80.27
2019-03-26T00:40:40.205Z,80.37
2019-03-26T00:41:32.082Z,80.56
2019-03-26T00:41:32.679Z,80.37
2019-03-26T00:41:33.280Z,80.56
2019-03-26T00:41:33.878Z,80.56
2019-03-26T00:41:34.477Z,80.56
2019-03-26T00:41:35.081Z,80.56
2019-03-26T00:41:35.679Z,80.56
2019-03-26T00:42:29.736Z,80.65
2019-03-26T00:42:30.333Z,80.46
2019-03-26T00:42:30.929Z,80.65
2019-03-26T00:42:31.533Z,80.46
2019-03-26T00:42:32.129Z,80.46
2019-03-26T00:42:32.729Z,80.46
2019-03-26T00:42:33.330Z,81.04
2019-03-26T00:43:27.411Z,80.56
2019-03-26T00:43:27.983Z,80.84
2019-03-26T00:43:28.582Z,80.56
2019-03-26T00:43:29.183Z,80.84
2019-03-26T00:43:29.785Z,80.56
2019-03-26T00:43:30.383Z,80.84
2019-03-26T00:43:30.984Z,80.84
2019-03-26T00:44:25.038Z,81.41
2019-03-26T00:44:25.634Z,81.13
2019-03-26T00:44:26.243Z,81.13
2019-03-26T00:44:26.841Z,81.04
2019-03-26T00:44:27.449Z,81.13
2019-03-26T00:44:28.033Z,81.04
2019-03-26T00:44:28.635Z,81.04
2019-03-26T00:45:22.689Z,81.32
2019-03-26T00:45:23.286Z,81.51
2019-03-26T00:45:23.888Z,81.23
2019-03-26T00:45:24.486Z,81.32
2019-03-26T00:45:25.087Z,81.32
2019-03-26T00:45:25.684Z,81.23
2019-03-26T00:45:26.284Z,81.32
2019-03-26T00:46:20.340Z,81.79
2019-03-26T00:46:20.939Z,81.60
2019-03-26T00:46:21.538Z,81.60
2019-03-26T00:46:22.142Z,81.79
2019-03-26T00:46:22.736Z,81.60
2019-03-26T00:46:23.338Z,81.60
2019-03-26T00:46:23.936Z,82.27
2019-03-26T00:47:17.992Z,81.70
2019-03-26T00:47:18.589Z,81.70
2019-03-26T00:47:19.188Z,81.88
2019-03-26T00:47:19.788Z,81.70
2019-03-26T00:47:20.390Z,81.70
2019-03-26T00:47:20.990Z,81.60
2019-03-26T00:47:21.587Z,81.88
2019-03-26T00:48:15.678Z,82.55
2019-03-26T00:48:16.244Z,82.36
2019-03-26T00:48:16.841Z,82.55
2019-03-26T00:48:17.442Z,82.74
2019-03-26T00:48:18.045Z,82.84
2019-03-26T00:48:18.642Z,82.93
2019-03-26T00:48:19.241Z,83.03
2019-03-26T00:49:13.297Z,83.50
2019-03-26T00:49:13.893Z,83.50
2019-03-26T00:49:14.493Z,83.78
2019-03-26T00:49:15.092Z,83.78
2019-03-26T00:49:15.692Z,83.50
2019-03-26T00:49:16.293Z,83.97
2019-03-26T00:49:16.892Z,83.88
2019-03-26T00:50:10.445Z,84.83
2019-03-26T00:50:11.034Z,84.83
2019-03-26T00:50:11.635Z,84.83
2019-03-26T00:50:12.234Z,84.92
2019-03-26T00:50:12.833Z,84.74
2019-03-26T00:50:13.435Z,84.92
2019-03-26T00:50:14.034Z,84.64
2019-03-26T00:50:14.633Z,85.11
2019-03-26T00:51:08.600Z,85.49
2019-03-26T00:51:09.200Z,85.59
2019-03-26T00:51:09.795Z,85.68
2019-03-26T00:51:10.396Z,85.40
2019-03-26T00:51:10.996Z,85.68
2019-03-26T00:51:11.595Z,85.78
2019-03-26T00:51:12.195Z,85.49
2019-03-26T00:52:26.220Z,87.11
2019-03-26T00:52:26.817Z,86.91
2019-03-26T00:52:27.416Z,86.91
2019-03-26T00:52:28.016Z,87.01
2019-03-26T00:52:28.616Z,86.72
2019-03-26T00:52:29.217Z,86.91
2019-03-26T00:52:29.822Z,86.63
2019-03-26T00:53:23.901Z,87.39
2019-03-26T00:53:24.471Z,87.39
2019-03-26T00:53:25.068Z,87.39
2019-03-26T00:53:25.669Z,87.20
2019-03-26T00:53:26.268Z,87.11
2019-03-26T00:53:26.869Z,87.20
2019-03-26T00:53:27.468Z,86.91
2019-03-26T00:54:21.536Z,87.96
2019-03-26T00:54:22.127Z,87.77
2019-03-26T00:54:22.721Z,88.15
2019-03-26T00:54:23.323Z,88.15
2019-03-26T00:54:23.919Z,88.15
2019-03-26T00:54:24.531Z,88.43
2019-03-26T00:54:25.120Z,88.15
2019-03-26T00:55:22.801Z,88.81
2019-03-26T00:55:22.878Z,88.24
2019-03-26T00:55:22.883Z,88.34
2019-03-26T00:55:22.941Z,88.24
2019-03-26T00:55:23.019Z,88.34
2019-03-26T00:55:23.216Z,88.43
2019-03-26T00:55:23.336Z,88.81
2019-03-26T00:56:16.827Z,88.91
2019-03-26T00:56:17.427Z,88.72
2019-03-26T00:56:18.023Z,88.91
2019-03-26T00:56:18.622Z,89.00
2019-03-26T00:56:19.223Z,88.91
2019-03-26T00:56:19.823Z,89.29
2019-03-26T00:56:20.426Z,88.91
2019-03-26T00:57:14.480Z,89.58
2019-03-26T00:57:15.077Z,89.29
2019-03-26T00:57:15.674Z,89.10
2019-03-26T00:57:16.277Z,89.48
2019-03-26T00:57:16.874Z,89.29
2019-03-26T00:57:17.476Z,89.20
2019-03-26T00:57:18.074Z,89.29
2019-03-26T00:58:12.159Z,89.29
2019-03-26T00:58:12.737Z,89.29
2019-03-26T00:58:13.330Z,89.48
2019-03-26T00:58:13.931Z,89.20
2019-03-26T00:58:14.526Z,89.58
2019-03-26T00:58:15.130Z,89.48
2019-03-26T00:58:15.728Z,89.29
2019-03-26T00:59:09.781Z,89.86
2019-03-26T00:59:10.378Z,89.76
2019-03-26T00:59:10.979Z,89.67
2019-03-26T00:59:11.582Z,89.67
2019-03-26T00:59:12.177Z,89.86
2019-03-26T00:59:12.779Z,89.86
2019-03-26T00:59:13.378Z,89.76
2019-03-26T01:00:07.443Z,89.48
2019-03-26T01:00:08.035Z,89.39
2019-03-26T01:00:08.630Z,89.48
2019-03-26T01:00:09.229Z,89.48
2019-03-26T01:00:09.830Z,89.48
2019-03-26T01:00:10.431Z,89.39
2019-03-26T01:00:11.029Z,89.76
2019-03-26T01:01:05.099Z,90.14
2019-03-26T01:01:05.681Z,90.14
2019-03-26T01:01:06.282Z,90.24
2019-03-26T01:01:06.883Z,90.14
2019-03-26T01:01:07.483Z,90.05
2019-03-26T01:01:08.082Z,90.14
2019-03-26T01:01:08.681Z,90.05
2019-03-26T01:02:02.742Z,90.24
2019-03-26T01:02:03.333Z,90.24
2019-03-26T01:02:03.934Z,90.24
2019-03-26T01:02:04.533Z,90.43
2019-03-26T01:02:05.133Z,90.43
2019-03-26T01:02:05.734Z,90.14
2019-03-26T01:02:06.334Z,90.43
2019-03-26T01:03:00.443Z,90.14
2019-03-26T01:03:00.984Z,90.14
2019-03-26T01:03:01.584Z,90.52
2019-03-26T01:03:02.185Z,90.24
2019-03-26T01:03:02.783Z,90.52
2019-03-26T01:03:03.384Z,90.24
2019-03-26T01:03:03.985Z,90.33
2019-03-26T01:03:58.042Z,90.81
2019-03-26T01:03:58.636Z,90.81
2019-03-26T01:03:59.236Z,90.71
2019-03-26T01:03:59.836Z,90.81
2019-03-26T01:04:00.438Z,90.81
2019-03-26T01:04:01.037Z,90.81
2019-03-26T01:04:01.635Z,90.81
2019-03-26T01:04:55.695Z,91.38
2019-03-26T01:04:56.288Z,91.38
2019-03-26T01:04:56.888Z,91.38
2019-03-26T01:04:57.489Z,91.38
2019-03-26T01:04:58.088Z,91.28
2019-03-26T01:04:58.687Z,91.38
2019-03-26T01:04:59.287Z,91.38
2019-03-26T01:05:53.345Z,92.14
2019-03-26T01:05:53.945Z,91.94
2019-03-26T01:05:54.544Z,91.85
2019-03-26T01:05:55.140Z,91.75
2019-03-26T01:05:55.742Z,92.04
2019-03-26T01:05:56.341Z,92.14
2019-03-26T01:05:56.941Z,91.85
2019-03-26T01:06:51.005Z,91.47
2019-03-26T01:06:51.593Z,91.75
2019-03-26T01:06:52.200Z,91.75
2019-03-26T01:06:52.791Z,91.47
2019-03-26T01:06:53.391Z,91.38
2019-03-26T01:06:53.992Z,91.28
2019-03-26T01:06:54.593Z,91.56
2019-03-26T01:07:48.648Z,91.66
2019-03-26T01:07:49.247Z,91.66
2019-03-26T01:07:49.843Z,91.66
2019-03-26T01:07:50.444Z,91.75
2019-03-26T01:07:51.043Z,91.56
2019-03-26T01:07:51.644Z,91.75
2019-03-26T01:07:52.242Z,91.47
2019-03-26T01:08:46.328Z,92.33
2019-03-26T01:08:46.894Z,92.23
2019-03-26T01:08:47.495Z,92.33
2019-03-26T01:08:48.097Z,92.23
2019-03-26T01:08:48.695Z,92.23
2019-03-26T01:08:49.295Z,92.14
2019-03-26T01:08:49.895Z,92.04
2019-03-26T01:09:43.951Z,92.52
2019-03-26T01:09:44.547Z,92.52
2019-03-26T01:09:45.147Z,92.42
2019-03-26T01:09:45.747Z,92.42
2019-03-26T01:09:46.348Z,92.42
2019-03-26T01:09:46.947Z,92.42
2019-03-26T01:09:47.547Z,92.42
2019-03-26T01:10:41.601Z,93.84
2019-03-26T01:10:42.200Z,93.65
2019-03-26T01:10:42.799Z,93.56
2019-03-26T01:10:43.398Z,93.46
2019-03-26T01:10:43.997Z,93.46
2019-03-26T01:10:44.599Z,93.46
2019-03-26T01:10:45.198Z,93.37
2019-03-26T01:11:39.256Z,93.65
2019-03-26T01:11:39.851Z,93.75
2019-03-26T01:11:40.450Z,93.65
2019-03-26T01:11:41.050Z,93.65
2019-03-26T01:11:41.653Z,93.65
2019-03-26T01:11:42.251Z,93.84
2019-03-26T01:11:42.850Z,93.75
2019-03-26T01:12:36.906Z,93.75
2019-03-26T01:12:37.502Z,93.75
2019-03-26T01:12:38.102Z,93.94
2019-03-26T01:12:38.706Z,93.84
2019-03-26T01:12:39.302Z,93.46
2019-03-26T01:12:39.903Z,93.75
2019-03-26T01:12:40.501Z,93.94
2019-03-26T01:13:34.585Z,94.89
2019-03-26T01:13:35.154Z,94.51
2019-03-26T01:13:35.755Z,94.60
2019-03-26T01:13:36.363Z,94.60
2019-03-26T01:13:36.954Z,94.23
2019-03-26T01:13:37.554Z,94.98
2019-03-26T01:13:38.156Z,94.51
2019-03-26T01:14:32.208Z,95.07
2019-03-26T01:14:32.806Z,94.89
2019-03-26T01:14:33.406Z,94.89
2019-03-26T01:14:34.005Z,94.89
2019-03-26T01:14:34.605Z,94.89
2019-03-26T01:14:35.257Z,94.89
2019-03-26T01:14:35.805Z,94.51
2019-03-26T01:15:29.865Z,94.89
2019-03-26T01:15:30.457Z,95.36
2019-03-26T01:15:31.056Z,95.27
2019-03-26T01:15:31.657Z,95.46
2019-03-26T01:15:32.256Z,95.46
2019-03-26T01:15:32.859Z,95.46
2019-03-26T01:15:33.456Z,94.89
2019-03-26T01:16:27.512Z,95.46
2019-03-26T01:16:28.109Z,95.27
2019-03-26T01:16:28.707Z,95.46
2019-03-26T01:16:29.308Z,95.46
2019-03-26T01:16:29.908Z,95.27
2019-03-26T01:16:30.509Z,95.46
2019-03-26T01:16:31.115Z,95.27
2019-03-26T01:17:25.172Z,94.89
2019-03-26T01:17:25.760Z,95.55
2019-03-26T01:17:26.360Z,95.07
2019-03-26T01:17:26.959Z,94.98
2019-03-26T01:17:27.559Z,95.07
2019-03-26T01:17:28.159Z,95.27
2019-03-26T01:17:28.761Z,95.46
2019-03-26T01:18:22.849Z,95.84
2019-03-26T01:18:23.415Z,96.22
2019-03-26T01:18:24.012Z,95.17
2019-03-26T01:18:24.611Z,96.12
2019-03-26T01:18:25.211Z,95.46
2019-03-26T01:18:25.815Z,96.12
2019-03-26T01:18:26.412Z,95.65
2019-03-26T01:19:20.469Z,95.84
2019-03-26T01:19:21.065Z,95.55
2019-03-26T01:19:21.665Z,95.55
2019-03-26T01:19:22.263Z,96.22
2019-03-26T01:19:22.864Z,96.59
2019-03-26T01:19:23.464Z,95.55
2019-03-26T01:19:24.062Z,95.46
2019-03-26T01:20:17.611Z,95.84
2019-03-26T01:20:18.205Z,95.74
2019-03-26T01:20:18.803Z,95.74
2019-03-26T01:20:19.408Z,96.41
2019-03-26T01:20:20.004Z,95.84
2019-03-26T01:20:20.608Z,95.74
2019-03-26T01:20:21.214Z,95.46
2019-03-26T01:20:21.807Z,95.74
2019-03-26T01:21:15.771Z,95.84
2019-03-26T01:21:16.372Z,96.22
2019-03-26T01:21:16.967Z,96.03
2019-03-26T01:21:17.567Z,96.03
2019-03-26T01:21:18.167Z,96.03
2019-03-26T01:21:18.766Z,95.84
2019-03-26T01:21:19.367Z,96.03
2019-03-26T01:22:33.391Z,96.22
2019-03-26T01:22:33.987Z,96.12
2019-03-26T01:22:34.587Z,96.22
2019-03-26T01:22:35.188Z,96.22
2019-03-26T01:22:35.786Z,96.31
2019-03-26T01:22:36.387Z,96.50
2019-03-26T01:22:36.987Z,96.31
2019-03-26T01:23:31.071Z,96.31
2019-03-26T01:23:31.640Z,96.12
2019-03-26T01:23:32.240Z,96.12
2019-03-26T01:23:32.839Z,96.12
2019-03-26T01:23:33.438Z,96.31
2019-03-26T01:23:34.039Z,96.12
2019-03-26T01:23:34.639Z,96.12
2019-03-26T01:24:28.695Z,95.07
2019-03-26T01:24:29.294Z,96.22
2019-03-26T01:24:29.905Z,96.03
2019-03-26T01:24:30.492Z,96.03
2019-03-26T01:24:31.090Z,95.74
2019-03-26T01:24:31.691Z,96.22
2019-03-26T01:24:32.290Z,95.36
2019-03-26T01:25:26.347Z,96.03
2019-03-26T01:25:26.945Z,96.31
2019-03-26T01:25:27.543Z,96.03
2019-03-26T01:25:28.143Z,96.31
2019-03-26T01:25:28.744Z,96.12
2019-03-26T01:25:29.342Z,96.03
2019-03-26T01:25:29.941Z,96.22
2019-03-26T01:26:23.999Z,96.69
2019-03-26T01:26:24.594Z,97.07
2019-03-26T01:26:25.196Z,96.97
2019-03-26T01:26:25.795Z,96.88
2019-03-26T01:26:26.394Z,96.88
2019-03-26T01:26:26.994Z,97.07
2019-03-26T01:26:27.593Z,97.07
2019-03-26T01:27:21.652Z,97.17
2019-03-26T01:27:22.248Z,96.78
2019-03-26T01:27:22.846Z,97.07
2019-03-26T01:27:23.445Z,97.07
2019-03-26T01:27:24.049Z,97.17
2019-03-26T01:27:24.646Z,97.26
2019-03-26T01:27:25.247Z,97.36
2019-03-26T01:28:19.337Z,97.17
2019-03-26T01:28:19.899Z,97.55
2019-03-26T01:28:20.498Z,97.55
2019-03-26T01:28:21.097Z,97.64
2019-03-26T01:28:21.698Z,97.83
2019-03-26T01:28:22.298Z,97.64
2019-03-26T01:28:22.896Z,97.74
2019-03-26T01:29:17.034Z,98.68
2019-03-26T01:29:17.551Z,98.49
2019-03-26T01:29:18.149Z,98.68
2019-03-26T01:29:18.752Z,98.49
2019-03-26T01:29:19.350Z,98.78
2019-03-26T01:29:19.949Z,98.68
2019-03-26T01:29:20.550Z,98.11
2019-03-26T01:30:14.604Z,99.54
2019-03-26T01:30:15.202Z,99.54
2019-03-26T01:30:15.800Z,99.35
2019-03-26T01:30:16.400Z,99.44
2019-03-26T01:30:17.000Z,99.35
2019-03-26T01:30:17.601Z,99.35
2019-03-26T01:30:18.203Z,99.44
2019-03-26T01:31:12.257Z,99.91
2019-03-26T01:31:12.852Z,99.82
2019-03-26T01:31:13.453Z,99.91
2019-03-26T01:31:14.054Z,99.99
2019-03-26T01:31:14.652Z,99.91
2019-03-26T01:31:15.253Z,99.91
2019-03-26T01:31:15.852Z,99.91
2019-03-26T01:32:09.908Z,99.99
2019-03-26T01:32:10.504Z,99.99
2019-03-26T01:32:11.104Z,99.99
2019-03-26T01:32:11.705Z,99.99
2019-03-26T01:32:12.305Z,99.99
2019-03-26T01:32:12.905Z,99.99
2019-03-26T01:32:13.505Z,99.99
2019-03-26T01:33:07.564Z,99.99
2019-03-26T01:33:08.156Z,99.99
2019-03-26T01:33:08.758Z,99.99
2019-03-26T01:33:09.360Z,99.99
2019-03-26T01:33:09.957Z,99.99
2019-03-26T01:33:10.556Z,99.99
2019-03-26T01:33:11.156Z,99.99
2019-03-26T01:34:05.241Z,99.99
2019-03-26T01:34:05.809Z,99.99
2019-03-26T01:34:06.408Z,99.99
2019-03-26T01:34:07.013Z,99.99
2019-03-26T01:34:07.607Z,99.99
2019-03-26T01:34:08.212Z,99.99
2019-03-26T01:34:08.808Z,99.99
2019-03-26T01:35:02.872Z,99.99
2019-03-26T01:35:03.460Z,99.99
2019-03-26T01:35:04.061Z,99.99
2019-03-26T01:35:04.660Z,99.99
2019-03-26T01:35:05.259Z,99.99
2019-03-26T01:35:05.860Z,99.99
2019-03-26T01:35:06.459Z,99.99
2019-03-26T01:36:00.531Z,99.99
2019-03-26T01:36:01.111Z,99.99
2019-03-26T01:36:01.712Z,99.99
2019-03-26T01:36:02.313Z,99.99
2019-03-26T01:36:02.912Z,99.99
2019-03-26T01:36:03.518Z,99.99
2019-03-26T01:36:04.111Z,99.99
2019-03-26T01:36:58.167Z,99.99
2019-03-26T01:36:58.771Z,99.99
2019-03-26T01:36:59.368Z,99.99
2019-03-26T01:36:59.964Z,99.99
2019-03-26T01:37:00.563Z,99.99
2019-03-26T01:37:01.163Z,99.99
2019-03-26T01:37:01.763Z,99.99
2019-03-26T01:37:55.817Z,99.99
2019-03-26T01:37:56.415Z,99.99
2019-03-26T01:37:57.015Z,99.99
2019-03-26T01:37:57.620Z,99.99
2019-03-26T01:37:58.214Z,99.99
2019-03-26T01:37:58.814Z,99.99
2019-03-26T01:37:59.414Z,99.99
2019-03-26T01:38:53.471Z,99.99
2019-03-26T01:38:54.068Z,99.99
2019-03-26T01:38:54.668Z,99.99
2019-03-26T01:38:55.267Z,99.99
2019-03-26T01:38:55.866Z,99.99
2019-03-26T01:38:56.466Z,99.99
2019-03-26T01:38:57.066Z,99.99
2019-03-26T01:39:51.151Z,99.99
2019-03-26T01:39:51.719Z,99.99
2019-03-26T01:39:52.317Z,99.99
2019-03-26T01:39:52.919Z,99.99
2019-03-26T01:39:53.518Z,99.99
2019-03-26T01:39:54.118Z,99.99
2019-03-26T01:39:54.718Z,99.99
2019-03-26T01:40:48.778Z,99.99
2019-03-26T01:40:49.370Z,99.99
2019-03-26T01:40:49.973Z,99.99
2019-03-26T01:40:50.570Z,99.99
2019-03-26T01:40:51.170Z,99.99
2019-03-26T01:40:51.773Z,99.99
2019-03-26T01:40:52.371Z,99.99
2019-03-26T01:41:46.425Z,99.99
2019-03-26T01:41:47.023Z,99.99
2019-03-26T01:41:47.626Z,99.99
2019-03-26T01:41:48.222Z,99.99
2019-03-26T01:41:48.829Z,99.99
2019-03-26T01:41:49.422Z,99.99
2019-03-26T01:41:50.022Z,99.99
2019-03-26T01:42:44.076Z,99.99
2019-03-26T01:42:44.674Z,99.99
2019-03-26T01:42:45.274Z,99.99
2019-03-26T01:42:45.873Z,99.99
2019-03-26T01:42:46.473Z,99.99
2019-03-26T01:42:47.077Z,99.99
2019-03-26T01:42:47.676Z,99.99
2019-03-26T01:43:41.737Z,99.99
2019-03-26T01:43:42.326Z,99.99
2019-03-26T01:43:42.930Z,99.99
2019-03-26T01:43:43.525Z,99.99
2019-03-26T01:43:44.125Z,99.99
2019-03-26T01:43:44.725Z,99.99
2019-03-26T01:43:45.324Z,99.99
2019-03-26T01:44:39.465Z,99.99
2019-03-26T01:44:39.979Z,99.99
2019-03-26T01:44:40.577Z,99.99
2019-03-26T01:44:41.176Z,99.99
2019-03-26T01:44:41.777Z,99.99
2019-03-26T01:44:42.382Z,99.99
2019-03-26T01:44:42.977Z,99.99
2019-03-26T01:45:37.035Z,99.99
2019-03-26T01:45:37.628Z,99.99
2019-03-26T01:45:38.228Z,99.99
2019-03-26T01:45:38.832Z,99.99
2019-03-26T01:45:39.427Z,99.99
2019-03-26T01:45:40.028Z,99.99
2019-03-26T01:45:40.628Z,99.99
2019-03-26T01:46:34.683Z,99.99
2019-03-26T01:46:35.282Z,99.99
2019-03-26T01:46:35.883Z,99.99
2019-03-26T01:46:36.485Z,99.99
2019-03-26T01:46:37.080Z,99.99
2019-03-26T01:46:37.682Z,99.99
2019-03-26T01:46:38.279Z,99.99
2019-03-26T01:47:44.009Z,99.99
2019-03-26T01:47:44.605Z,99.99
2019-03-26T01:47:45.206Z,99.99
2019-03-26T01:47:45.804Z,99.99
2019-03-26T01:47:46.403Z,99.99
2019-03-26T01:47:47.007Z,99.99
2019-03-26T01:47:47.608Z,99.99
2019-03-26T01:48:41.662Z,99.99
2019-03-26T01:48:42.256Z,99.99
2019-03-26T01:48:42.857Z,99.99
2019-03-26T01:48:43.456Z,99.99
2019-03-26T01:48:44.057Z,99.99
2019-03-26T01:48:44.656Z,99.99
2019-03-26T01:48:45.255Z,99.99
2019-03-26T01:49:39.350Z,99.99
2019-03-26T01:49:39.909Z,99.99
2019-03-26T01:49:40.508Z,99.99
2019-03-26T01:49:41.108Z,99.99
2019-03-26T01:49:41.711Z,99.99
2019-03-26T01:49:42.308Z,99.99
2019-03-26T01:49:42.934Z,99.99
2019-03-26T01:50:36.964Z,99.99
2019-03-26T01:50:37.560Z,99.99
2019-03-26T01:50:38.159Z,99.99
2019-03-26T01:50:38.766Z,99.99
2019-03-26T01:50:39.360Z,99.99
2019-03-26T01:50:39.960Z,99.99
2019-03-26T01:50:40.559Z,99.99
2019-03-26T01:51:34.616Z,99.99
2019-03-26T01:51:35.212Z,99.99
2019-03-26T01:51:35.811Z,99.99
2019-03-26T01:51:36.411Z,99.99
2019-03-26T01:51:37.011Z,99.99
2019-03-26T01:51:37.613Z,99.99
2019-03-26T01:51:38.211Z,99.99
2019-03-26T01:52:32.272Z,99.99
2019-03-26T01:52:32.865Z,99.99
2019-03-26T01:52:33.463Z,99.99
2019-03-26T01:52:34.062Z,99.99
2019-03-26T01:52:34.664Z,99.99
2019-03-26T01:52:35.264Z,99.99
2019-03-26T01:52:35.868Z,99.99
2019-03-26T01:53:29.920Z,99.99
2019-03-26T01:53:30.515Z,99.99
2019-03-26T01:53:31.117Z,99.99
2019-03-26T01:53:31.716Z,99.99
2019-03-26T01:53:32.317Z,99.99
2019-03-26T01:53:32.913Z,99.99
2019-03-26T01:53:33.514Z,99.99
2019-03-26T01:54:27.570Z,99.99
2019-03-26T01:54:28.166Z,99.99
2019-03-26T01:54:28.767Z,99.99
2019-03-26T01:54:29.366Z,99.99
2019-03-26T01:54:29.967Z,99.99
2019-03-26T01:54:30.567Z,99.99
2019-03-26T01:54:31.168Z,99.99
2019-03-26T01:55:24.756Z,99.99
2019-03-26T01:55:25.310Z,99.99
2019-03-26T01:55:25.907Z,99.99
2019-03-26T01:55:26.507Z,99.99
2019-03-26T01:55:27.107Z,99.99
2019-03-26T01:55:27.707Z,99.99
2019-03-26T01:55:28.308Z,99.99
2019-03-26T01:55:28.907Z,99.99
2019-03-26T01:56:22.876Z,99.99
2019-03-26T01:56:23.475Z,99.99
2019-03-26T01:56:24.070Z,99.99
2019-03-26T01:56:24.669Z,99.99
2019-03-26T01:56:25.269Z,99.99
2019-03-26T01:56:25.871Z,99.99
2019-03-26T01:56:26.470Z,99.99
2019-03-26T01:57:40.497Z,99.99
2019-03-26T01:57:41.091Z,99.99
2019-03-26T01:57:41.690Z,99.99
2019-03-26T01:57:42.289Z,99.99
2019-03-26T01:57:42.889Z,99.99
2019-03-26T01:57:43.491Z,99.99
2019-03-26T01:57:44.090Z,99.99
2019-03-26T01:58:38.145Z,99.99
2019-03-26T01:58:38.743Z,99.99
2019-03-26T01:58:39.346Z,99.99
2019-03-26T01:58:39.942Z,99.99
2019-03-26T01:58:40.542Z,99.99
2019-03-26T01:58:41.143Z,99.99
2019-03-26T01:58:41.744Z,99.99
2019-03-26T01:59:35.798Z,99.99
2019-03-26T01:59:36.393Z,99.99
2019-03-26T01:59:36.995Z,99.99
2019-03-26T01:59:37.593Z,99.99
2019-03-26T01:59:38.194Z,99.99
2019-03-26T01:59:38.794Z,99.99
2019-03-26T01:59:39.395Z,99.99
2019-03-26T02:00:33.480Z,99.99
2019-03-26T02:00:34.046Z,99.99
2019-03-26T02:00:34.717Z,99.99
2019-03-26T02:00:35.255Z,99.99
2019-03-26T02:00:35.845Z,99.99
2019-03-26T02:00:36.449Z,99.99
2019-03-26T02:00:37.046Z,99.99
2019-03-26T02:01:31.100Z,99.99
2019-03-26T02:01:31.697Z,99.99
2019-03-26T02:01:32.297Z,99.99
2019-03-26T02:01:32.897Z,99.99
2019-03-26T02:01:33.496Z,99.99
2019-03-26T02:01:34.098Z,99.99
2019-03-26T02:01:34.700Z,99.99
2019-03-26T02:02:28.753Z,99.99
2019-03-26T02:02:29.350Z,99.99
2019-03-26T02:02:29.949Z,99.99
2019-03-26T02:02:30.549Z,99.99
2019-03-26T02:02:31.148Z,99.99
2019-03-26T02:02:31.749Z,99.99
2019-03-26T02:02:32.348Z,99.99
2019-03-26T02:03:26.404Z,99.99
2019-03-26T02:03:27.002Z,99.99
2019-03-26T02:03:27.601Z,99.99
2019-03-26T02:03:28.200Z,99.99
2019-03-26T02:03:28.801Z,99.99
2019-03-26T02:03:29.401Z,99.99
2019-03-26T02:03:29.999Z,99.99
2019-03-26T02:04:24.056Z,99.99
2019-03-26T02:04:24.653Z,99.99
2019-03-26T02:04:25.252Z,99.99
2019-03-26T02:04:25.853Z,99.99
2019-03-26T02:04:26.451Z,99.99
2019-03-26T02:04:27.052Z,99.99
2019-03-26T02:04:27.652Z,99.99
2019-03-26T02:05:33.409Z,99.99
2019-03-26T02:05:33.979Z,99.99
2019-03-26T02:05:34.578Z,99.99
2019-03-26T02:05:35.181Z,99.99
2019-03-26T02:05:35.780Z,99.99
2019-03-26T02:05:36.378Z,99.99
2019-03-26T02:05:36.977Z,99.99
2019-03-26T02:06:31.034Z,99.99
2019-03-26T02:06:31.629Z,99.99
2019-03-26T02:06:32.231Z,99.99
2019-03-26T02:06:32.829Z,99.99
2019-03-26T02:06:33.430Z,99.99
2019-03-26T02:06:34.030Z,99.99
2019-03-26T02:06:34.628Z,99.99
2019-03-26T02:07:28.687Z,99.99
2019-03-26T02:07:29.283Z,99.99
2019-03-26T02:07:29.882Z,99.99
2019-03-26T02:07:30.482Z,99.99
2019-03-26T02:07:31.082Z,99.99
2019-03-26T02:07:31.683Z,99.99
2019-03-26T02:07:32.281Z,99.99
2019-03-26T02:08:26.336Z,99.99
2019-03-26T02:08:26.934Z,99.99
2019-03-26T02:08:27.532Z,99.99
2019-03-26T02:08:28.133Z,99.99
2019-03-26T02:08:28.733Z,99.99
2019-03-26T02:08:29.333Z,99.99
2019-03-26T02:08:29.932Z,99.99
2019-03-26T02:09:23.988Z,99.99
2019-03-26T02:09:24.584Z,99.99
2019-03-26T02:09:25.187Z,99.99
2019-03-26T02:09:25.786Z,99.99
2019-03-26T02:09:26.387Z,99.99
2019-03-26T02:09:26.985Z,99.99
2019-03-26T02:09:27.584Z,99.99
2019-03-26T02:10:21.643Z,99.99
2019-03-26T02:10:22.236Z,99.99
2019-03-26T02:10:22.840Z,99.99
2019-03-26T02:10:23.436Z,99.99
2019-03-26T02:10:24.036Z,99.99
2019-03-26T02:10:24.637Z,99.99
2019-03-26T02:10:25.235Z,99.99
2019-03-26T02:11:19.319Z,99.99
2019-03-26T02:11:19.888Z,99.99
2019-03-26T02:11:20.487Z,99.99
2019-03-26T02:11:21.087Z,99.99
2019-03-26T02:11:21.692Z,99.99
2019-03-26T02:11:22.329Z,99.99
2019-03-26T02:11:22.889Z,99.99
2019-03-26T02:12:16.945Z,99.99
2019-03-26T02:12:17.539Z,99.99
2019-03-26T02:12:18.141Z,99.99
2019-03-26T02:12:18.740Z,99.99
2019-03-26T02:12:19.339Z,99.99
2019-03-26T02:12:19.938Z,99.99
2019-03-26T02:12:20.538Z,99.99
2019-03-26T02:13:14.594Z,99.99
2019-03-26T02:13:15.191Z,99.99
2019-03-26T02:13:15.791Z,99.99
2019-03-26T02:13:16.391Z,99.99
2019-03-26T02:13:16.996Z,99.99
2019-03-26T02:13:17.592Z,99.99
2019-03-26T02:13:18.191Z,99.99
2019-03-26T02:14:19.222Z,99.99
2019-03-26T02:14:19.727Z,99.99
2019-03-26T02:14:20.323Z,99.99
2019-03-26T02:14:20.924Z,99.99
2019-03-26T02:14:21.522Z,99.99
2019-03-26T02:14:22.122Z,99.99
2019-03-26T02:14:22.722Z,99.99
2019-03-26T02:14:23.322Z,99.99
2019-03-26T02:14:23.926Z,99.99
2019-03-26T02:14:24.523Z,99.99
2019-03-26T02:14:25.122Z,99.99
2019-03-26T02:14:25.743Z,99.99
2019-03-26T02:15:39.730Z,99.99